sensor_id;sensor_type;location;lat;lon;timestamp;P1;durP1;ratioP1;P2;durP2;ratioP2
79375;SDS011;68846;53.150;18.136;2023-05-07T00:00:47;9.80;;;5.30;;
79375;SDS011;68846;53.150;18.136;2023-05-07T00:03:20;9.40;;;6.40;;
79375;SDS011;68846;53.150;18.136;2023-05-07T00:05:47;10.50;;;6.40;;
79375;SDS011;68846;53.150;18.136;2023-05-07T00:08:13;9.20;;;5.90;;
79375;SDS011;68846;53.150;18.136;2023-05-07T00:10:40;10.60;;;6.20;;
79375;SDS011;68846;53.150;18.136;2023-05-07T00:13:06;8.40;;;5.10;;
79375;SDS011;68846;53.150;18.136;2023-05-07T00:15:33;8.30;;;5.50;;
79375;SDS011;68846;53.150;18.136;2023-05-07T00:17:59;9.40;;;5.40;;
79375;SDS011;68846;53.150;18.136;2023-05-07T00:20:25;12.70;;;6.30;;
79375;SDS011;68846;53.150;18.136;2023-05-07T00:22:52;11.30;;;5.60;;
79375;SDS011;68846;53.150;18.136;2023-05-07T00:25:18;9.60;;;6.10;;
79375;SDS011;68846;53.150;18.136;2023-05-07T00:27:45;8.50;;;5.60;;
79375;SDS011;68846;53.150;18.136;2023-05-07T00:30:11;10.20;;;6.40;;
79375;SDS011;68846;53.150;18.136;2023-05-07T00:32:38;10.10;;;6.10;;
79375;SDS011;68846;53.150;18.136;2023-05-07T00:35:05;11.20;;;5.70;;
79375;SDS011;68846;53.150;18.136;2023-05-07T00:39:58;8.10;;;5.20;;
79375;SDS011;68846;53.150;18.136;2023-05-07T00:44:50;10.80;;;6.70;;
79375;SDS011;68846;53.150;18.136;2023-05-07T00:47:17;10.30;;;5.70;;
79375;SDS011;68846;53.150;18.136;2023-05-07T00:49:44;14.00;;;6.80;;
79375;SDS011;68846;53.150;18.136;2023-05-07T00:52:12;10.10;;;6.50;;
79375;SDS011;68846;53.150;18.136;2023-05-07T00:54:42;11.20;;;7.00;;
79375;SDS011;68846;53.150;18.136;2023-05-07T00:57:08;13.40;;;6.70;;
79375;SDS011;68846;53.150;18.136;2023-05-07T00:59:36;12.00;;;6.70;;
79375;SDS011;68846;53.150;18.136;2023-05-07T01:02:03;9.30;;;6.20;;
79375;SDS011;68846;53.150;18.136;2023-05-07T01:04:29;9.80;;;5.80;;
79375;SDS011;68846;53.150;18.136;2023-05-07T01:06:56;12.00;;;7.20;;
79375;SDS011;68846;53.150;18.136;2023-05-07T01:09:24;9.90;;;6.50;;
79375;SDS011;68846;53.150;18.136;2023-05-07T01:11:51;11.20;;;7.20;;
79375;SDS011;68846;53.150;18.136;2023-05-07T01:14:18;10.40;;;6.70;;
79375;SDS011;68846;53.150;18.136;2023-05-07T01:16:46;8.70;;;6.20;;
79375;SDS011;68846;53.150;18.136;2023-05-07T01:19:14;12.10;;;6.70;;
79375;SDS011;68846;53.150;18.136;2023-05-07T01:21:47;11.40;;;7.00;;
79375;SDS011;68846;53.150;18.136;2023-05-07T01:24:15;13.90;;;7.90;;
79375;SDS011;68846;53.150;18.136;2023-05-07T01:29:09;12.60;;;6.70;;
79375;SDS011;68846;53.150;18.136;2023-05-07T01:31:36;12.50;;;6.50;;
79375;SDS011;68846;53.150;18.136;2023-05-07T01:36:30;11.90;;;6.50;;
79375;SDS011;68846;53.150;18.136;2023-05-07T01:38:58;8.80;;;6.30;;
79375;SDS011;68846;53.150;18.136;2023-05-07T01:41:25;10.10;;;6.80;;
79375;SDS011;68846;53.150;18.136;2023-05-07T01:43:52;12.50;;;7.40;;
79375;SDS011;68846;53.150;18.136;2023-05-07T01:46:19;12.50;;;7.80;;
79375;SDS011;68846;53.150;18.136;2023-05-07T01:48:46;14.60;;;8.40;;
79375;SDS011;68846;53.150;18.136;2023-05-07T01:53:40;13.30;;;8.00;;
79375;SDS011;68846;53.150;18.136;2023-05-07T01:56:10;12.20;;;7.40;;
79375;SDS011;68846;53.150;18.136;2023-05-07T01:58:37;12.70;;;7.60;;
79375;SDS011;68846;53.150;18.136;2023-05-07T02:01:03;13.10;;;7.40;;
79375;SDS011;68846;53.150;18.136;2023-05-07T02:03:29;9.60;;;6.90;;
79375;SDS011;68846;53.150;18.136;2023-05-07T02:06:00;10.20;;;6.70;;
79375;SDS011;68846;53.150;18.136;2023-05-07T02:08:38;9.80;;;6.70;;
79375;SDS011;68846;53.150;18.136;2023-05-07T02:11:05;9.30;;;6.50;;
79375;SDS011;68846;53.150;18.136;2023-05-07T02:13:32;11.90;;;6.70;;
79375;SDS011;68846;53.150;18.136;2023-05-07T02:16:00;13.30;;;8.10;;
79375;SDS011;68846;53.150;18.136;2023-05-07T02:18:28;12.50;;;7.40;;
79375;SDS011;68846;53.150;18.136;2023-05-07T02:20:54;14.90;;;8.70;;
79375;SDS011;68846;53.150;18.136;2023-05-07T02:23:20;13.00;;;7.10;;
79375;SDS011;68846;53.150;18.136;2023-05-07T02:25:47;10.10;;;6.40;;
79375;SDS011;68846;53.150;18.136;2023-05-07T02:28:13;9.80;;;6.40;;
79375;SDS011;68846;53.150;18.136;2023-05-07T02:30:45;12.60;;;7.40;;
79375;SDS011;68846;53.150;18.136;2023-05-07T02:33:11;11.00;;;6.90;;
79375;SDS011;68846;53.150;18.136;2023-05-07T02:35:39;13.90;;;7.10;;
79375;SDS011;68846;53.150;18.136;2023-05-07T02:38:06;12.70;;;7.70;;
79375;SDS011;68846;53.150;18.136;2023-05-07T02:40:32;15.00;;;9.50;;
79375;SDS011;68846;53.150;18.136;2023-05-07T02:43:04;13.60;;;8.70;;
79375;SDS011;68846;53.150;18.136;2023-05-07T02:47:58;19.00;;;10.50;;
79375;SDS011;68846;53.150;18.136;2023-05-07T02:50:25;15.70;;;9.50;;
79375;SDS011;68846;53.150;18.136;2023-05-07T02:52:52;18.20;;;9.10;;
79375;SDS011;68846;53.150;18.136;2023-05-07T02:55:19;15.70;;;10.20;;
79375;SDS011;68846;53.150;18.136;2023-05-07T02:57:45;16.10;;;10.90;;
79375;SDS011;68846;53.150;18.136;2023-05-07T03:00:14;15.60;;;10.80;;
79375;SDS011;68846;53.150;18.136;2023-05-07T03:02:51;18.60;;;12.00;;
79375;SDS011;68846;53.150;18.136;2023-05-07T03:05:18;16.20;;;11.90;;
79375;SDS011;68846;53.150;18.136;2023-05-07T03:07:44;20.70;;;11.10;;
79375;SDS011;68846;53.150;18.136;2023-05-07T03:10:12;21.00;;;12.50;;
79375;SDS011;68846;53.150;18.136;2023-05-07T03:12:38;22.90;;;13.10;;
79375;SDS011;68846;53.150;18.136;2023-05-07T03:15:04;21.50;;;11.70;;
79375;SDS011;68846;53.150;18.136;2023-05-07T03:17:31;18.50;;;11.60;;
79375;SDS011;68846;53.150;18.136;2023-05-07T03:19:57;17.50;;;10.20;;
79375;SDS011;68846;53.150;18.136;2023-05-07T03:22:23;19.80;;;11.70;;
79375;SDS011;68846;53.150;18.136;2023-05-07T03:24:49;16.50;;;11.20;;
79375;SDS011;68846;53.150;18.136;2023-05-07T03:27:16;17.40;;;10.60;;
79375;SDS011;68846;53.150;18.136;2023-05-07T03:29:42;17.20;;;11.30;;
79375;SDS011;68846;53.150;18.136;2023-05-07T03:32:08;18.30;;;11.20;;
79375;SDS011;68846;53.150;18.136;2023-05-07T03:34:35;19.40;;;11.60;;
79375;SDS011;68846;53.150;18.136;2023-05-07T03:37:01;20.40;;;12.30;;
79375;SDS011;68846;53.150;18.136;2023-05-07T03:39:28;20.40;;;11.40;;
79375;SDS011;68846;53.150;18.136;2023-05-07T03:41:54;22.70;;;11.80;;
79375;SDS011;68846;53.150;18.136;2023-05-07T03:44:20;19.80;;;11.10;;
79375;SDS011;68846;53.150;18.136;2023-05-07T03:46:49;14.60;;;10.50;;
79375;SDS011;68846;53.150;18.136;2023-05-07T03:49:16;19.20;;;9.90;;
79375;SDS011;68846;53.150;18.136;2023-05-07T03:51:42;18.40;;;10.80;;
79375;SDS011;68846;53.150;18.136;2023-05-07T03:56:35;20.70;;;10.00;;
79375;SDS011;68846;53.150;18.136;2023-05-07T03:59:02;15.10;;;10.20;;
79375;SDS011;68846;53.150;18.136;2023-05-07T04:03:55;13.90;;;9.10;;
79375;SDS011;68846;53.150;18.136;2023-05-07T04:06:22;23.40;;;10.90;;
79375;SDS011;68846;53.150;18.136;2023-05-07T04:08:48;20.90;;;12.40;;
79375;SDS011;68846;53.150;18.136;2023-05-07T04:11:15;21.80;;;12.40;;
79375;SDS011;68846;53.150;18.136;2023-05-07T04:13:41;19.30;;;10.90;;
79375;SDS011;68846;53.150;18.136;2023-05-07T04:18:36;17.80;;;10.50;;
79375;SDS011;68846;53.150;18.136;2023-05-07T04:21:02;15.40;;;8.60;;
79375;SDS011;68846;53.150;18.136;2023-05-07T04:23:28;13.40;;;8.60;;
79375;SDS011;68846;53.150;18.136;2023-05-07T04:25:54;16.80;;;9.60;;
79375;SDS011;68846;53.150;18.136;2023-05-07T04:28:41;17.90;;;9.90;;
79375;SDS011;68846;53.150;18.136;2023-05-07T04:31:08;15.70;;;10.00;;
79375;SDS011;68846;53.150;18.136;2023-05-07T04:33:35;14.80;;;8.80;;
79375;SDS011;68846;53.150;18.136;2023-05-07T04:36:02;12.40;;;9.00;;
79375;SDS011;68846;53.150;18.136;2023-05-07T04:38:30;17.30;;;10.30;;
79375;SDS011;68846;53.150;18.136;2023-05-07T04:41:02;20.30;;;10.90;;
79375;SDS011;68846;53.150;18.136;2023-05-07T04:43:29;18.40;;;11.00;;
79375;SDS011;68846;53.150;18.136;2023-05-07T04:45:55;18.90;;;9.80;;
79375;SDS011;68846;53.150;18.136;2023-05-07T04:48:23;15.80;;;9.50;;
79375;SDS011;68846;53.150;18.136;2023-05-07T04:50:50;13.40;;;8.20;;
79375;SDS011;68846;53.150;18.136;2023-05-07T04:53:17;15.20;;;9.40;;
79375;SDS011;68846;53.150;18.136;2023-05-07T04:55:44;11.70;;;9.20;;
79375;SDS011;68846;53.150;18.136;2023-05-07T04:58:11;13.20;;;8.60;;
79375;SDS011;68846;53.150;18.136;2023-05-07T05:00:38;12.60;;;8.80;;
79375;SDS011;68846;53.150;18.136;2023-05-07T05:05:34;13.60;;;9.30;;
79375;SDS011;68846;53.150;18.136;2023-05-07T05:08:01;17.20;;;10.30;;
79375;SDS011;68846;53.150;18.136;2023-05-07T05:10:27;18.10;;;10.10;;
79375;SDS011;68846;53.150;18.136;2023-05-07T05:12:54;17.80;;;10.10;;
79375;SDS011;68846;53.150;18.136;2023-05-07T05:15:21;15.80;;;9.40;;
79375;SDS011;68846;53.150;18.136;2023-05-07T05:17:47;14.00;;;8.30;;
79375;SDS011;68846;53.150;18.136;2023-05-07T05:22:41;14.90;;;8.90;;
79375;SDS011;68846;53.150;18.136;2023-05-07T05:25:08;11.70;;;8.90;;
79375;SDS011;68846;53.150;18.136;2023-05-07T05:27:34;15.70;;;8.30;;
79375;SDS011;68846;53.150;18.136;2023-05-07T05:30:01;13.00;;;7.90;;
79375;SDS011;68846;53.150;18.136;2023-05-07T05:32:28;13.50;;;7.60;;
79375;SDS011;68846;53.150;18.136;2023-05-07T05:37:22;11.00;;;7.70;;
79375;SDS011;68846;53.150;18.136;2023-05-07T05:39:48;12.40;;;8.90;;
79375;SDS011;68846;53.150;18.136;2023-05-07T05:42:15;13.40;;;8.50;;
79375;SDS011;68846;53.150;18.136;2023-05-07T05:44:41;17.30;;;9.10;;
79375;SDS011;68846;53.150;18.136;2023-05-07T05:47:07;12.40;;;8.30;;
79375;SDS011;68846;53.150;18.136;2023-05-07T05:49:34;14.30;;;8.60;;
79375;SDS011;68846;53.150;18.136;2023-05-07T05:52:02;11.70;;;7.20;;
79375;SDS011;68846;53.150;18.136;2023-05-07T05:54:29;14.00;;;8.20;;
79375;SDS011;68846;53.150;18.136;2023-05-07T05:56:55;12.50;;;8.80;;
79375;SDS011;68846;53.150;18.136;2023-05-07T05:59:23;14.20;;;8.80;;
79375;SDS011;68846;53.150;18.136;2023-05-07T06:01:49;12.00;;;8.50;;
79375;SDS011;68846;53.150;18.136;2023-05-07T06:04:15;15.60;;;9.90;;
79375;SDS011;68846;53.150;18.136;2023-05-07T06:06:42;14.00;;;9.40;;
79375;SDS011;68846;53.150;18.136;2023-05-07T06:11:39;16.60;;;9.70;;
79375;SDS011;68846;53.150;18.136;2023-05-07T06:14:07;16.90;;;9.50;;
79375;SDS011;68846;53.150;18.136;2023-05-07T06:16:33;16.40;;;10.30;;
79375;SDS011;68846;53.150;18.136;2023-05-07T06:19:00;17.00;;;10.00;;
79375;SDS011;68846;53.150;18.136;2023-05-07T06:21:26;16.00;;;9.00;;
79375;SDS011;68846;53.150;18.136;2023-05-07T06:23:52;16.40;;;9.90;;
79375;SDS011;68846;53.150;18.136;2023-05-07T06:26:21;20.90;;;8.50;;
79375;SDS011;68846;53.150;18.136;2023-05-07T06:28:47;11.30;;;7.90;;
79375;SDS011;68846;53.150;18.136;2023-05-07T06:31:15;11.40;;;7.60;;
79375;SDS011;68846;53.150;18.136;2023-05-07T06:33:45;13.50;;;7.80;;
79375;SDS011;68846;53.150;18.136;2023-05-07T06:36:12;13.10;;;7.40;;
79375;SDS011;68846;53.150;18.136;2023-05-07T06:38:39;11.80;;;7.10;;
79375;SDS011;68846;53.150;18.136;2023-05-07T06:41:05;11.70;;;7.20;;
79375;SDS011;68846;53.150;18.136;2023-05-07T06:46:27;11.00;;;6.80;;
79375;SDS011;68846;53.150;18.136;2023-05-07T06:48:53;10.80;;;6.70;;
79375;SDS011;68846;53.150;18.136;2023-05-07T06:51:20;9.80;;;6.50;;
79375;SDS011;68846;53.150;18.136;2023-05-07T06:53:46;10.50;;;7.10;;
79375;SDS011;68846;53.150;18.136;2023-05-07T06:56:12;10.10;;;5.90;;
79375;SDS011;68846;53.150;18.136;2023-05-07T07:01:05;8.50;;;5.20;;
79375;SDS011;68846;53.150;18.136;2023-05-07T07:03:32;11.00;;;5.50;;
79375;SDS011;68846;53.150;18.136;2023-05-07T07:05:58;9.00;;;5.60;;
79375;SDS011;68846;53.150;18.136;2023-05-07T07:08:25;8.20;;;4.60;;
79375;SDS011;68846;53.150;18.136;2023-05-07T07:10:52;9.30;;;3.90;;
79375;SDS011;68846;53.150;18.136;2023-05-07T07:13:18;7.50;;;4.50;;
79375;SDS011;68846;53.150;18.136;2023-05-07T07:15:46;8.60;;;4.30;;
79375;SDS011;68846;53.150;18.136;2023-05-07T07:18:12;7.50;;;4.10;;
79375;SDS011;68846;53.150;18.136;2023-05-07T07:20:39;6.90;;;4.30;;
79375;SDS011;68846;53.150;18.136;2023-05-07T07:23:07;6.30;;;4.20;;
79375;SDS011;68846;53.150;18.136;2023-05-07T07:25:33;6.50;;;3.70;;
79375;SDS011;68846;53.150;18.136;2023-05-07T07:27:59;7.10;;;3.70;;
79375;SDS011;68846;53.150;18.136;2023-05-07T07:32:52;7.20;;;3.30;;
79375;SDS011;68846;53.150;18.136;2023-05-07T07:37:45;8.30;;;3.00;;
79375;SDS011;68846;53.150;18.136;2023-05-07T07:40:13;4.70;;;3.20;;
79375;SDS011;68846;53.150;18.136;2023-05-07T07:42:40;5.90;;;3.40;;
79375;SDS011;68846;53.150;18.136;2023-05-07T07:45:06;6.10;;;3.70;;
79375;SDS011;68846;53.150;18.136;2023-05-07T07:47:34;4.60;;;3.20;;
79375;SDS011;68846;53.150;18.136;2023-05-07T07:50:00;5.10;;;2.90;;
79375;SDS011;68846;53.150;18.136;2023-05-07T07:52:27;5.00;;;3.30;;
79375;SDS011;68846;53.150;18.136;2023-05-07T07:54:53;5.80;;;3.30;;
79375;SDS011;68846;53.150;18.136;2023-05-07T07:57:20;5.10;;;3.20;;
79375;SDS011;68846;53.150;18.136;2023-05-07T07:59:47;6.60;;;3.30;;
79375;SDS011;68846;53.150;18.136;2023-05-07T08:02:14;4.40;;;3.10;;
79375;SDS011;68846;53.150;18.136;2023-05-07T08:04:40;6.10;;;3.20;;
79375;SDS011;68846;53.150;18.136;2023-05-07T08:07:12;4.80;;;2.90;;
79375;SDS011;68846;53.150;18.136;2023-05-07T08:09:40;4.40;;;3.10;;
79375;SDS011;68846;53.150;18.136;2023-05-07T08:12:07;4.90;;;2.80;;
79375;SDS011;68846;53.150;18.136;2023-05-07T08:14:34;3.50;;;2.60;;
79375;SDS011;68846;53.150;18.136;2023-05-07T08:17:02;5.30;;;3.10;;
79375;SDS011;68846;53.150;18.136;2023-05-07T08:19:29;4.60;;;2.60;;
79375;SDS011;68846;53.150;18.136;2023-05-07T08:21:55;4.30;;;3.10;;
79375;SDS011;68846;53.150;18.136;2023-05-07T08:27:13;4.00;;;2.90;;
79375;SDS011;68846;53.150;18.136;2023-05-07T08:29:40;4.70;;;2.90;;
79375;SDS011;68846;53.150;18.136;2023-05-07T08:32:07;5.00;;;2.60;;
79375;SDS011;68846;53.150;18.136;2023-05-07T08:34:48;7.20;;;2.90;;
79375;SDS011;68846;53.150;18.136;2023-05-07T08:37:14;5.70;;;2.90;;
79375;SDS011;68846;53.150;18.136;2023-05-07T08:39:41;5.00;;;2.60;;
79375;SDS011;68846;53.150;18.136;2023-05-07T08:42:12;5.10;;;2.90;;
79375;SDS011;68846;53.150;18.136;2023-05-07T08:44:42;5.80;;;3.10;;
79375;SDS011;68846;53.150;18.136;2023-05-07T08:47:15;4.70;;;2.60;;
79375;SDS011;68846;53.150;18.136;2023-05-07T08:49:42;4.30;;;2.80;;
79375;SDS011;68846;53.150;18.136;2023-05-07T08:52:09;4.40;;;2.60;;
79375;SDS011;68846;53.150;18.136;2023-05-07T08:54:38;4.10;;;2.30;;
79375;SDS011;68846;53.150;18.136;2023-05-07T08:57:05;4.40;;;2.40;;
79375;SDS011;68846;53.150;18.136;2023-05-07T08:59:32;4.10;;;2.50;;
79375;SDS011;68846;53.150;18.136;2023-05-07T09:01:58;5.10;;;2.20;;
79375;SDS011;68846;53.150;18.136;2023-05-07T09:04:25;3.10;;;1.90;;
79375;SDS011;68846;53.150;18.136;2023-05-07T09:06:52;3.70;;;1.90;;
79375;SDS011;68846;53.150;18.136;2023-05-07T09:09:18;4.80;;;2.20;;
79375;SDS011;68846;53.150;18.136;2023-05-07T09:11:45;4.30;;;2.30;;
79375;SDS011;68846;53.150;18.136;2023-05-07T09:14:11;4.40;;;2.30;;
79375;SDS011;68846;53.150;18.136;2023-05-07T09:16:40;3.70;;;2.20;;
79375;SDS011;68846;53.150;18.136;2023-05-07T09:19:07;5.10;;;2.30;;
79375;SDS011;68846;53.150;18.136;2023-05-07T09:21:34;4.40;;;2.20;;
79375;SDS011;68846;53.150;18.136;2023-05-07T09:24:02;4.40;;;2.40;;
79375;SDS011;68846;53.150;18.136;2023-05-07T09:26:33;5.00;;;2.60;;
79375;SDS011;68846;53.150;18.136;2023-05-07T09:29:00;4.50;;;2.70;;
79375;SDS011;68846;53.150;18.136;2023-05-07T09:31:27;5.10;;;3.10;;
79375;SDS011;68846;53.150;18.136;2023-05-07T09:33:54;5.10;;;3.00;;
79375;SDS011;68846;53.150;18.136;2023-05-07T09:36:23;4.50;;;2.80;;
79375;SDS011;68846;53.150;18.136;2023-05-07T09:38:50;5.40;;;2.90;;
79375;SDS011;68846;53.150;18.136;2023-05-07T09:44:16;4.20;;;2.70;;
79375;SDS011;68846;53.150;18.136;2023-05-07T09:46:51;4.00;;;2.80;;
79375;SDS011;68846;53.150;18.136;2023-05-07T09:49:23;4.60;;;3.10;;
79375;SDS011;68846;53.150;18.136;2023-05-07T09:51:57;4.90;;;2.80;;
79375;SDS011;68846;53.150;18.136;2023-05-07T09:54:26;11.00;;;3.30;;
79375;SDS011;68846;53.150;18.136;2023-05-07T09:56:57;6.10;;;3.20;;
79375;SDS011;68846;53.150;18.136;2023-05-07T09:59:26;4.80;;;3.00;;
79375;SDS011;68846;53.150;18.136;2023-05-07T10:01:54;5.00;;;3.00;;
79375;SDS011;68846;53.150;18.136;2023-05-07T10:04:27;5.10;;;2.80;;
79375;SDS011;68846;53.150;18.136;2023-05-07T10:06:54;5.50;;;3.10;;
79375;SDS011;68846;53.150;18.136;2023-05-07T10:09:23;4.90;;;2.90;;
79375;SDS011;68846;53.150;18.136;2023-05-07T10:11:51;5.90;;;3.20;;
79375;SDS011;68846;53.150;18.136;2023-05-07T10:14:20;5.80;;;3.20;;
79375;SDS011;68846;53.150;18.136;2023-05-07T10:16:48;4.40;;;3.00;;
79375;SDS011;68846;53.150;18.136;2023-05-07T10:19:16;5.40;;;3.00;;
79375;SDS011;68846;53.150;18.136;2023-05-07T10:21:53;4.50;;;3.50;;
79375;SDS011;68846;53.150;18.136;2023-05-07T10:24:26;6.10;;;3.20;;
79375;SDS011;68846;53.150;18.136;2023-05-07T10:26:57;6.30;;;3.60;;
79375;SDS011;68846;53.150;18.136;2023-05-07T10:35:17;5.00;;;2.70;;
79375;SDS011;68846;53.150;18.136;2023-05-07T10:37:47;5.70;;;2.80;;
79375;SDS011;68846;53.150;18.136;2023-05-07T10:40:16;4.50;;;3.00;;
79375;SDS011;68846;53.150;18.136;2023-05-07T10:42:59;4.70;;;2.80;;
79375;SDS011;68846;53.150;18.136;2023-05-07T10:45:30;4.50;;;2.60;;
79375;SDS011;68846;53.150;18.136;2023-05-07T10:48:05;7.70;;;3.30;;
79375;SDS011;68846;53.150;18.136;2023-05-07T10:50:40;5.00;;;2.70;;
79375;SDS011;68846;53.150;18.136;2023-05-07T10:55:51;5.90;;;3.20;;
79375;SDS011;68846;53.150;18.136;2023-05-07T10:58:46;9.20;;;3.70;;
79375;SDS011;68846;53.150;18.136;2023-05-07T11:04:21;3.80;;;2.70;;
79375;SDS011;68846;53.150;18.136;2023-05-07T11:15:39;4.70;;;2.80;;
79375;SDS011;68846;53.150;18.136;2023-05-07T11:18:23;2.90;;;2.30;;
79375;SDS011;68846;53.150;18.136;2023-05-07T11:26:10;3.50;;;2.30;;
79375;SDS011;68846;53.150;18.136;2023-05-07T11:28:43;4.10;;;2.40;;
79375;SDS011;68846;53.150;18.136;2023-05-07T11:31:10;3.60;;;2.50;;
79375;SDS011;68846;53.150;18.136;2023-05-07T11:33:37;4.00;;;2.30;;
79375;SDS011;68846;53.150;18.136;2023-05-07T11:36:05;3.00;;;2.20;;
79375;SDS011;68846;53.150;18.136;2023-05-07T11:38:37;6.60;;;2.50;;
79375;SDS011;68846;53.150;18.136;2023-05-07T11:41:04;9.90;;;2.70;;
79375;SDS011;68846;53.150;18.136;2023-05-07T11:43:31;3.50;;;2.50;;
79375;SDS011;68846;53.150;18.136;2023-05-07T11:46:08;3.00;;;2.40;;
79375;SDS011;68846;53.150;18.136;2023-05-07T11:48:36;2.80;;;2.20;;
79375;SDS011;68846;53.150;18.136;2023-05-07T11:51:03;5.10;;;2.60;;
79375;SDS011;68846;53.150;18.136;2023-05-07T11:53:39;3.70;;;2.50;;
79375;SDS011;68846;53.150;18.136;2023-05-07T11:56:08;2.90;;;2.40;;
79375;SDS011;68846;53.150;18.136;2023-05-07T11:58:35;3.60;;;2.30;;
79375;SDS011;68846;53.150;18.136;2023-05-07T12:01:02;3.30;;;2.50;;
79375;SDS011;68846;53.150;18.136;2023-05-07T12:03:29;4.80;;;2.30;;
79375;SDS011;68846;53.150;18.136;2023-05-07T12:05:55;6.10;;;2.40;;
79375;SDS011;68846;53.150;18.136;2023-05-07T12:08:21;3.90;;;2.80;;
79375;SDS011;68846;53.150;18.136;2023-05-07T12:10:48;7.50;;;2.90;;
79375;SDS011;68846;53.150;18.136;2023-05-07T12:13:16;3.80;;;2.50;;
79375;SDS011;68846;53.150;18.136;2023-05-07T12:15:43;5.00;;;2.90;;
79375;SDS011;68846;53.150;18.136;2023-05-07T12:18:12;4.30;;;2.60;;
79375;SDS011;68846;53.150;18.136;2023-05-07T12:20:39;2.50;;;2.20;;
79375;SDS011;68846;53.150;18.136;2023-05-07T12:23:06;3.20;;;2.40;;
79375;SDS011;68846;53.150;18.136;2023-05-07T12:25:35;3.80;;;2.40;;
79375;SDS011;68846;53.150;18.136;2023-05-07T12:28:02;4.60;;;2.60;;
79375;SDS011;68846;53.150;18.136;2023-05-07T12:30:31;4.60;;;2.50;;
79375;SDS011;68846;53.150;18.136;2023-05-07T12:32:58;5.70;;;2.80;;
79375;SDS011;68846;53.150;18.136;2023-05-07T12:35:31;4.50;;;2.60;;
79375;SDS011;68846;53.150;18.136;2023-05-07T12:37:58;17.30;;;8.60;;
79375;SDS011;68846;53.150;18.136;2023-05-07T12:40:35;8.00;;;3.90;;
79375;SDS011;68846;53.150;18.136;2023-05-07T12:43:06;4.50;;;2.60;;
79375;SDS011;68846;53.150;18.136;2023-05-07T12:45:36;4.90;;;2.40;;
79375;SDS011;68846;53.150;18.136;2023-05-07T12:48:04;3.70;;;2.50;;
79375;SDS011;68846;53.150;18.136;2023-05-07T12:50:31;7.70;;;2.80;;
79375;SDS011;68846;53.150;18.136;2023-05-07T12:52:59;5.30;;;3.40;;
79375;SDS011;68846;53.150;18.136;2023-05-07T12:55:25;4.30;;;2.30;;
79375;SDS011;68846;53.150;18.136;2023-05-07T12:57:52;6.30;;;2.80;;
79375;SDS011;68846;53.150;18.136;2023-05-07T13:00:35;3.00;;;2.30;;
79375;SDS011;68846;53.150;18.136;2023-05-07T13:03:01;5.10;;;2.20;;
79375;SDS011;68846;53.150;18.136;2023-05-07T13:05:27;4.20;;;2.60;;
79375;SDS011;68846;53.150;18.136;2023-05-07T13:07:54;4.40;;;2.10;;
79375;SDS011;68846;53.150;18.136;2023-05-07T13:10:22;3.50;;;2.10;;
79375;SDS011;68846;53.150;18.136;2023-05-07T13:12:49;4.50;;;2.30;;
79375;SDS011;68846;53.150;18.136;2023-05-07T13:17:41;4.60;;;2.60;;
79375;SDS011;68846;53.150;18.136;2023-05-07T13:20:33;3.40;;;2.00;;
79375;SDS011;68846;53.150;18.136;2023-05-07T13:23:00;3.10;;;1.90;;
79375;SDS011;68846;53.150;18.136;2023-05-07T13:25:27;3.40;;;2.00;;
79375;SDS011;68846;53.150;18.136;2023-05-07T13:27:53;4.20;;;2.40;;
79375;SDS011;68846;53.150;18.136;2023-05-07T13:30:20;2.90;;;2.00;;
79375;SDS011;68846;53.150;18.136;2023-05-07T13:32:46;5.10;;;2.20;;
79375;SDS011;68846;53.150;18.136;2023-05-07T13:35:13;2.50;;;1.90;;
79375;SDS011;68846;53.150;18.136;2023-05-07T13:37:39;3.40;;;1.80;;
79375;SDS011;68846;53.150;18.136;2023-05-07T13:40:05;3.00;;;2.20;;
79375;SDS011;68846;53.150;18.136;2023-05-07T13:44:58;2.90;;;2.10;;
79375;SDS011;68846;53.150;18.136;2023-05-07T13:47:24;4.40;;;2.40;;
79375;SDS011;68846;53.150;18.136;2023-05-07T13:49:50;3.50;;;2.30;;
79375;SDS011;68846;53.150;18.136;2023-05-07T13:52:17;3.30;;;2.40;;
79375;SDS011;68846;53.150;18.136;2023-05-07T13:54:44;3.80;;;2.10;;
79375;SDS011;68846;53.150;18.136;2023-05-07T13:57:10;4.70;;;2.40;;
79375;SDS011;68846;53.150;18.136;2023-05-07T13:59:37;6.00;;;2.30;;
79375;SDS011;68846;53.150;18.136;2023-05-07T14:02:03;2.60;;;1.70;;
79375;SDS011;68846;53.150;18.136;2023-05-07T14:04:30;4.70;;;2.10;;
79375;SDS011;68846;53.150;18.136;2023-05-07T14:06:56;3.90;;;2.30;;
79375;SDS011;68846;53.150;18.136;2023-05-07T14:09:23;2.50;;;2.00;;
79375;SDS011;68846;53.150;18.136;2023-05-07T14:11:49;4.80;;;1.90;;
79375;SDS011;68846;53.150;18.136;2023-05-07T14:14:17;2.90;;;2.20;;
79375;SDS011;68846;53.150;18.136;2023-05-07T14:16:44;5.90;;;2.40;;
79375;SDS011;68846;53.150;18.136;2023-05-07T14:19:13;5.80;;;2.90;;
79375;SDS011;68846;53.150;18.136;2023-05-07T14:21:40;7.20;;;2.50;;
79375;SDS011;68846;53.150;18.136;2023-05-07T14:24:07;6.20;;;2.20;;
79375;SDS011;68846;53.150;18.136;2023-05-07T14:26:35;5.10;;;2.40;;
79375;SDS011;68846;53.150;18.136;2023-05-07T14:29:02;5.30;;;2.40;;
79375;SDS011;68846;53.150;18.136;2023-05-07T14:31:32;4.10;;;2.10;;
79375;SDS011;68846;53.150;18.136;2023-05-07T14:33:59;3.10;;;2.20;;
79375;SDS011;68846;53.150;18.136;2023-05-07T14:36:25;3.50;;;2.10;;
79375;SDS011;68846;53.150;18.136;2023-05-07T14:38:52;5.30;;;2.70;;
79375;SDS011;68846;53.150;18.136;2023-05-07T14:41:24;3.00;;;2.00;;
79375;SDS011;68846;53.150;18.136;2023-05-07T14:43:50;3.00;;;2.40;;
79375;SDS011;68846;53.150;18.136;2023-05-07T14:46:17;3.60;;;2.10;;
79375;SDS011;68846;53.150;18.136;2023-05-07T14:48:44;3.80;;;2.20;;
79375;SDS011;68846;53.150;18.136;2023-05-07T14:51:12;3.00;;;2.00;;
79375;SDS011;68846;53.150;18.136;2023-05-07T14:53:40;3.60;;;2.20;;
79375;SDS011;68846;53.150;18.136;2023-05-07T14:56:08;5.70;;;2.60;;
79375;SDS011;68846;53.150;18.136;2023-05-07T14:58:34;3.00;;;1.90;;
79375;SDS011;68846;53.150;18.136;2023-05-07T15:01:01;3.00;;;1.90;;
79375;SDS011;68846;53.150;18.136;2023-05-07T15:03:27;3.40;;;2.30;;
79375;SDS011;68846;53.150;18.136;2023-05-07T15:08:20;3.50;;;2.30;;
79375;SDS011;68846;53.150;18.136;2023-05-07T15:10:46;3.10;;;1.90;;
79375;SDS011;68846;53.150;18.136;2023-05-07T15:13:12;4.60;;;2.30;;
79375;SDS011;68846;53.150;18.136;2023-05-07T15:15:38;3.30;;;1.80;;
79375;SDS011;68846;53.150;18.136;2023-05-07T15:18:05;3.50;;;2.00;;
79375;SDS011;68846;53.150;18.136;2023-05-07T15:20:31;2.50;;;2.00;;
79375;SDS011;68846;53.150;18.136;2023-05-07T15:22:57;3.50;;;2.10;;
79375;SDS011;68846;53.150;18.136;2023-05-07T15:25:24;4.00;;;2.30;;
79375;SDS011;68846;53.150;18.136;2023-05-07T15:27:50;3.80;;;2.00;;
79375;SDS011;68846;53.150;18.136;2023-05-07T15:30:17;5.00;;;2.10;;
79375;SDS011;68846;53.150;18.136;2023-05-07T15:32:45;5.30;;;2.40;;
79375;SDS011;68846;53.150;18.136;2023-05-07T15:35:12;3.10;;;1.90;;
79375;SDS011;68846;53.150;18.136;2023-05-07T15:37:38;6.40;;;1.90;;
79375;SDS011;68846;53.150;18.136;2023-05-07T15:40:04;2.50;;;1.80;;
79375;SDS011;68846;53.150;18.136;2023-05-07T15:42:32;5.10;;;1.90;;
79375;SDS011;68846;53.150;18.136;2023-05-07T15:44:59;2.70;;;1.70;;
79375;SDS011;68846;53.150;18.136;2023-05-07T15:47:27;3.30;;;2.30;;
79375;SDS011;68846;53.150;18.136;2023-05-07T15:49:53;3.40;;;1.80;;
79375;SDS011;68846;53.150;18.136;2023-05-07T15:52:19;2.70;;;2.00;;